sensor_id;sensor_type;location;lat;lon;timestamp;pressure;altitude;pressure_sealevel;temperature;humidity
38612;BME280;24368;52.156;20.788;2023-12-22T00:00:44;96746.30;;;4.76;100.00
38612;BME280;24368;52.156;20.788;2023-12-22T00:06:08;96748.77;;;4.69;100.00
38612;BME280;24368;52.156;20.788;2023-12-22T00:11:13;96754.34;;;4.60;100.00
38612;BME280;24368;52.156;20.788;2023-12-22T00:16:14;96762.65;;;4.51;100.00
38612;BME280;24368;52.156;20.788;2023-12-22T00:21:16;96764.98;;;4.51;100.00
38612;BME280;24368;52.156;20.788;2023-12-22T00:26:18;96773.60;;;4.42;100.00
38612;BME280;24368;52.156;20.788;2023-12-22T00:31:20;96784.86;;;4.43;100.00
38612;BME280;24368;52.156;20.788;2023-12-22T00:36:21;96791.82;;;4.44;100.00
38612;BME280;24368;52.156;20.788;2023-12-22T00:41:26;96798.83;;;4.31;100.00
38612;BME280;24368;52.156;20.788;2023-12-22T00:46:28;96811.53;;;4.22;100.00
38612;BME280;24368;52.156;20.788;2023-12-22T00:51:30;96817.17;;;4.17;100.00
38612;BME280;24368;52.156;20.788;2023-12-22T00:56:32;96819.45;;;4.12;100.00
38612;BME280;24368;52.156;20.788;2023-12-22T01:01:34;96816.42;;;4.09;100.00
38612;BME280;24368;52.156;20.788;2023-12-22T01:06:39;96818.95;;;4.10;100.00
38612;BME280;24368;52.156;20.788;2023-12-22T01:11:41;96822.70;;;4.05;100.00
38612;BME280;24368;52.156;20.788;2023-12-22T01:16:43;96815.90;;;4.03;100.00
38612;BME280;24368;52.156;20.788;2023-12-22T01:21:44;96810.11;;;4.02;100.00
38612;BME280;24368;52.156;20.788;2023-12-22T01:26:46;96804.21;;;4.04;100.00
38612;BME280;24368;52.156;20.788;2023-12-22T01:31:48;96803.44;;;4.02;100.00
38612;BME280;24368;52.156;20.788;2023-12-22T01:36:49;96793.80;;;4.04;100.00
38612;BME280;24368;52.156;20.788;2023-12-22T01:41:51;96787.48;;;4.00;100.00
38612;BME280;24368;52.156;20.788;2023-12-22T01:46:53;96797.48;;;4.00;100.00
38612;BME280;24368;52.156;20.788;2023-12-22T01:51:55;96810.02;;;4.00;100.00
38612;BME280;24368;52.156;20.788;2023-12-22T01:56:57;96807.86;;;4.02;100.00
38612;BME280;24368;52.156;20.788;2023-12-22T02:02:02;96819.96;;;3.99;100.00
38612;BME280;24368;52.156;20.788;2023-12-22T02:07:05;96815.17;;;3.98;100.00
38612;BME280;24368;52.156;20.788;2023-12-22T02:12:10;96816.34;;;4.02;100.00
38612;BME280;24368;52.156;20.788;2023-12-22T02:17:29;96806.94;;;4.05;100.00
38612;BME280;24368;52.156;20.788;2023-12-22T02:22:32;96808.51;;;4.09;100.00
38612;BME280;24368;52.156;20.788;2023-12-22T02:27:40;96814.39;;;4.10;100.00
38612;BME280;24368;52.156;20.788;2023-12-22T02:32:46;96795.25;;;4.06;100.00
38612;BME280;24368;52.156;20.788;2023-12-22T02:37:50;96798.90;;;4.02;100.00
38612;BME280;24368;52.156;20.788;2023-12-22T02:42:53;96798.05;;;4.00;100.00
38612;BME280;24368;52.156;20.788;2023-12-22T02:47:55;96801.84;;;4.01;100.00
38612;BME280;24368;52.156;20.788;2023-12-22T02:52:57;96801.46;;;4.00;100.00
38612;BME280;24368;52.156;20.788;2023-12-22T02:57:59;96801.79;;;4.04;100.00
38612;BME280;24368;52.156;20.788;2023-12-22T03:03:01;96793.84;;;4.04;100.00
38612;BME280;24368;52.156;20.788;2023-12-22T03:08:03;96802.46;;;3.98;100.00
38612;BME280;24368;52.156;20.788;2023-12-22T03:13:05;96806.06;;;3.81;100.00
38612;BME280;24368;52.156;20.788;2023-12-22T03:18:06;96797.34;;;3.59;100.00
38612;BME280;24368;52.156;20.788;2023-12-22T03:23:08;96801.17;;;3.52;100.00
38612;BME280;24368;52.156;20.788;2023-12-22T03:28:10;96784.63;;;3.49;100.00
38612;BME280;24368;52.156;20.788;2023-12-22T03:33:12;96785.91;;;3.49;100.00
38612;BME280;24368;52.156;20.788;2023-12-22T03:38:13;96783.48;;;3.47;100.00
38612;BME280;24368;52.156;20.788;2023-12-22T03:43:15;96785.07;;;3.40;100.00
38612;BME280;24368;52.156;20.788;2023-12-22T03:48:17;96779.61;;;3.40;100.00
38612;BME280;24368;52.156;20.788;2023-12-22T03:53:18;96781.30;;;3.43;100.00
38612;BME280;24368;52.156;20.788;2023-12-22T03:58:21;96786.63;;;3.45;100.00
38612;BME280;24368;52.156;20.788;2023-12-22T04:03:23;96789.47;;;3.44;100.00
38612;BME280;24368;52.156;20.788;2023-12-22T04:08:24;96780.15;;;3.43;100.00
38612;BME280;24368;52.156;20.788;2023-12-22T04:13:26;96784.64;;;3.39;100.00
38612;BME280;24368;52.156;20.788;2023-12-22T04:18:28;96787.80;;;3.35;100.00
38612;BME280;24368;52.156;20.788;2023-12-22T04:23:30;96801.97;;;3.35;100.00
38612;BME280;24368;52.156;20.788;2023-12-22T04:28:31;96795.45;;;3.31;100.00
38612;BME280;24368;52.156;20.788;2023-12-22T04:33:33;96819.14;;;3.24;100.00
38612;BME280;24368;52.156;20.788;2023-12-22T04:38:35;96802.67;;;3.12;100.00
38612;BME280;24368;52.156;20.788;2023-12-22T04:43:37;96810.64;;;3.00;100.00
38612;BME280;24368;52.156;20.788;2023-12-22T04:48:38;96818.90;;;2.91;100.00
38612;BME280;24368;52.156;20.788;2023-12-22T04:53:40;96801.98;;;2.78;100.00
38612;BME280;24368;52.156;20.788;2023-12-22T04:58:42;96821.29;;;2.82;100.00
38612;BME280;24368;52.156;20.788;2023-12-22T05:03:44;96848.63;;;2.77;100.00
38612;BME280;24368;52.156;20.788;2023-12-22T05:08:46;96852.40;;;2.78;100.00
38612;BME280;24368;52.156;20.788;2023-12-22T05:13:48;96853.61;;;2.72;100.00
38612;BME280;24368;52.156;20.788;2023-12-22T05:18:50;96849.33;;;2.62;100.00
38612;BME280;24368;52.156;20.788;2023-12-22T05:23:51;96843.05;;;2.53;100.00
38612;BME280;24368;52.156;20.788;2023-12-22T05:28:53;96848.44;;;2.49;100.00
38612;BME280;24368;52.156;20.788;2023-12-22T05:33:55;96851.27;;;2.50;100.00
38612;BME280;24368;52.156;20.788;2023-12-22T05:38:57;96856.52;;;2.53;100.00
38612;BME280;24368;52.156;20.788;2023-12-22T05:43:58;96850.05;;;2.51;100.00
38612;BME280;24368;52.156;20.788;2023-12-22T05:49:00;96858.16;;;2.52;100.00
38612;BME280;24368;52.156;20.788;2023-12-22T05:54:02;96845.21;;;2.57;100.00
38612;BME280;24368;52.156;20.788;2023-12-22T05:59:04;96857.91;;;2.69;100.00
38612;BME280;24368;52.156;20.788;2023-12-22T06:04:07;96860.64;;;2.74;100.00
38612;BME280;24368;52.156;20.788;2023-12-22T06:09:09;96873.91;;;2.79;100.00
38612;BME280;24368;52.156;20.788;2023-12-22T06:14:13;96878.81;;;2.91;100.00
38612;BME280;24368;52.156;20.788;2023-12-22T06:19:16;96882.21;;;2.96;100.00
38612;BME280;24368;52.156;20.788;2023-12-22T06:24:18;96893.36;;;3.03;100.00
38612;BME280;24368;52.156;20.788;2023-12-22T06:29:20;96907.06;;;3.10;100.00
38612;BME280;24368;52.156;20.788;2023-12-22T06:34:21;96913.08;;;3.15;100.00
38612;BME280;24368;52.156;20.788;2023-12-22T06:39:23;96923.62;;;3.19;100.00
38612;BME280;24368;52.156;20.788;2023-12-22T06:44:25;96927.63;;;3.21;97.50
38612;BME280;24368;52.156;20.788;2023-12-22T06:49:27;96933.83;;;3.13;98.23
38612;BME280;24368;52.156;20.788;2023-12-22T06:54:29;96936.47;;;3.07;99.33
38612;BME280;24368;52.156;20.788;2023-12-22T06:59:31;96949.06;;;3.03;99.71
38612;BME280;24368;52.156;20.788;2023-12-22T07:04:33;96942.77;;;2.96;100.00
38612;BME280;24368;52.156;20.788;2023-12-22T07:09:34;96953.92;;;2.92;99.73
38612;BME280;24368;52.156;20.788;2023-12-22T07:14:36;96952.58;;;2.90;99.70
38612;BME280;24368;52.156;20.788;2023-12-22T07:19:38;96964.40;;;2.85;99.99
38612;BME280;24368;52.156;20.788;2023-12-22T07:24:40;96967.34;;;2.83;99.64
38612;BME280;24368;52.156;20.788;2023-12-22T07:29:42;96975.02;;;2.84;99.52
38612;BME280;24368;52.156;20.788;2023-12-22T07:34:43;96980.64;;;2.81;99.41
38612;BME280;24368;52.156;20.788;2023-12-22T07:39:46;96976.14;;;2.66;100.00
38612;BME280;24368;52.156;20.788;2023-12-22T07:44:48;96982.77;;;2.52;100.00
38612;BME280;24368;52.156;20.788;2023-12-22T07:49:49;96984.98;;;2.44;100.00
38612;BME280;24368;52.156;20.788;2023-12-22T07:54:51;96992.20;;;2.43;98.45
38612;BME280;24368;52.156;20.788;2023-12-22T07:59:53;96995.46;;;2.40;97.43
38612;BME280;24368;52.156;20.788;2023-12-22T08:04:55;96999.38;;;2.38;97.50
38612;BME280;24368;52.156;20.788;2023-12-22T08:09:57;96997.06;;;2.33;99.37
38612;BME280;24368;52.156;20.788;2023-12-22T08:14:59;97004.61;;;2.27;100.00
38612;BME280;24368;52.156;20.788;2023-12-22T08:20:00;97014.13;;;2.24;100.00
38612;BME280;24368;52.156;20.788;2023-12-22T08:25:03;97015.62;;;2.26;100.00
38612;BME280;24368;52.156;20.788;2023-12-22T08:30:05;97019.20;;;2.30;100.00
38612;BME280;24368;52.156;20.788;2023-12-22T08:35:08;97009.73;;;2.29;100.00
38612;BME280;24368;52.156;20.788;2023-12-22T08:40:11;97005.63;;;2.34;100.00
38612;BME280;24368;52.156;20.788;2023-12-22T08:45:12;97020.16;;;2.33;100.00
38612;BME280;24368;52.156;20.788;2023-12-22T08:50:15;97026.80;;;2.36;100.00
38612;BME280;24368;52.156;20.788;2023-12-22T08:55:18;97020.58;;;2.41;100.00
38612;BME280;24368;52.156;20.788;2023-12-22T09:00:20;97015.66;;;2.44;100.00
38612;BME280;24368;52.156;20.788;2023-12-22T09:05:22;97011.86;;;2.55;100.00
38612;BME280;24368;52.156;20.788;2023-12-22T09:10:24;97014.98;;;2.67;100.00
38612;BME280;24368;52.156;20.788;2023-12-22T09:15:27;97018.27;;;2.76;100.00
38612;BME280;24368;52.156;20.788;2023-12-22T09:20:29;97007.20;;;2.85;100.00
38612;BME280;24368;52.156;20.788;2023-12-22T09:25:31;96999.46;;;2.95;100.00
38612;BME280;24368;52.156;20.788;2023-12-22T09:30:33;96988.02;;;3.04;100.00
38612;BME280;24368;52.156;20.788;2023-12-22T09:35:35;96982.06;;;3.13;99.20
38612;BME280;24368;52.156;20.788;2023-12-22T09:40:37;96965.73;;;3.31;97.54
38612;BME280;24368;52.156;20.788;2023-12-22T09:45:40;96962.95;;;3.52;96.37
38612;BME280;24368;52.156;20.788;2023-12-22T09:50:44;96950.36;;;3.48;97.56
38612;BME280;24368;52.156;20.788;2023-12-22T09:55:46;96941.17;;;3.37;97.05
38612;BME280;24368;52.156;20.788;2023-12-22T10:00:51;96934.39;;;3.23;98.28
38612;BME280;24368;52.156;20.788;2023-12-22T10:05:52;96923.54;;;3.07;100.00
38612;BME280;24368;52.156;20.788;2023-12-22T10:10:55;97032.91;;;1.31;100.00
38612;BME280;24368;52.156;20.788;2023-12-22T10:15:58;97038.29;;;-0.52;100.00
38612;BME280;24368;52.156;20.788;2023-12-22T10:21:00;97034.70;;;-0.90;100.00
38612;BME280;24368;52.156;20.788;2023-12-22T10:26:02;97045.61;;;-1.02;100.00
38612;BME280;24368;52.156;20.788;2023-12-22T10:31:05;97048.08;;;-1.02;100.00
38612;BME280;24368;52.156;20.788;2023-12-22T10:36:08;97045.23;;;-1.01;100.00
38612;BME280;24368;52.156;20.788;2023-12-22T10:41:11;97054.14;;;-1.02;100.00
38612;BME280;24368;52.156;20.788;2023-12-22T10:46:13;97044.33;;;-0.96;100.00
38612;BME280;24368;52.156;20.788;2023-12-22T10:51:15;97014.05;;;-0.94;100.00
38612;BME280;24368;52.156;20.788;2023-12-22T10:56:18;96972.21;;;-0.86;100.00
38612;BME280;24368;52.156;20.788;2023-12-22T11:01:21;96947.94;;;-0.74;100.00
38612;BME280;24368;52.156;20.788;2023-12-22T11:06:24;96942.46;;;-0.71;100.00
38612;BME280;24368;52.156;20.788;2023-12-22T11:11:33;96945.33;;;-0.67;100.00
38612;BME280;24368;52.156;20.788;2023-12-22T11:16:36;96945.15;;;-0.41;100.00
38612;BME280;24368;52.156;20.788;2023-12-22T11:21:39;96933.08;;;0.41;100.00
38612;BME280;24368;52.156;20.788;2023-12-22T11:26:42;96944.41;;;-0.11;100.00
38612;BME280;24368;52.156;20.788;2023-12-22T11:31:47;96924.84;;;3.29;100.00
38612;BME280;24368;52.156;20.788;2023-12-22T11:36:51;96928.63;;;3.94;100.00
38612;BME280;24368;52.156;20.788;2023-12-22T11:41:55;96921.91;;;3.24;100.00
38612;BME280;24368;52.156;20.788;2023-12-22T11:47:08;96925.68;;;3.31;100.00
38612;BME280;24368;52.156;20.788;2023-12-22T11:52:17;96928.45;;;2.05;100.00
38612;BME280;24368;52.156;20.788;2023-12-22T11:57:28;96919.67;;;1.05;100.00
38612;BME280;24368;52.156;20.788;2023-12-22T12:02:35;96912.23;;;0.95;100.00
38612;BME280;24368;52.156;20.788;2023-12-22T12:07:45;96907.59;;;0.87;100.00
38612;BME280;24368;52.156;20.788;2023-12-22T12:13:06;96907.13;;;1.25;100.00
38612;BME280;24368;52.156;20.788;2023-12-22T12:18:09;96892.73;;;0.71;100.00
38612;BME280;24368;52.156;20.788;2023-12-22T12:23:11;96884.14;;;0.66;100.00
38612;BME280;24368;52.156;20.788;2023-12-22T12:28:13;96879.66;;;0.63;100.00
38612;BME280;24368;52.156;20.788;2023-12-22T12:33:18;96877.52;;;0.62;100.00
38612;BME280;24368;52.156;20.788;2023-12-22T12:38:21;96883.54;;;0.61;100.00
38612;BME280;24368;52.156;20.788;2023-12-22T12:43:24;96886.63;;;0.61;100.00
38612;BME280;24368;52.156;20.788;2023-12-22T12:48:26;96891.00;;;0.57;100.00
38612;BME280;24368;52.156;20.788;2023-12-22T12:53:32;96893.04;;;0.52;100.00
38612;BME280;24368;52.156;20.788;2023-12-22T12:58:35;96898.55;;;0.46;100.00
38612;BME280;24368;52.156;20.788;2023-12-22T13:03:53;96894.83;;;0.41;100.00
38612;BME280;24368;52.156;20.788;2023-12-22T13:08:55;96890.83;;;0.38;100.00
38612;BME280;24368;52.156;20.788;2023-12-22T13:13:57;96883.24;;;0.40;100.00
38612;BME280;24368;52.156;20.788;2023-12-22T13:19:00;96873.80;;;0.42;100.00
38612;BME280;24368;52.156;20.788;2023-12-22T13:29:12;96870.73;;;0.44;100.00
38612;BME280;24368;52.156;20.788;2023-12-22T13:34:14;96862.36;;;0.45;100.00
38612;BME280;24368;52.156;20.788;2023-12-22T13:39:16;96859.48;;;0.44;100.00
38612;BME280;24368;52.156;20.788;2023-12-22T13:44:18;96859.58;;;0.48;100.00
38612;BME280;24368;52.156;20.788;2023-12-22T13:49:20;96860.98;;;0.49;100.00
38612;BME280;24368;52.156;20.788;2023-12-22T13:54:32;96859.19;;;0.47;100.00
38612;BME280;24368;52.156;20.788;2023-12-22T13:59:35;96858.20;;;0.40;100.00
38612;BME280;24368;52.156;20.788;2023-12-22T14:04:36;96841.95;;;0.36;100.00
38612;BME280;24368;52.156;20.788;2023-12-22T14:09:38;96846.08;;;0.31;100.00
38612;BME280;24368;52.156;20.788;2023-12-22T14:14:40;96836.17;;;0.30;100.00
38612;BME280;24368;52.156;20.788;2023-12-22T14:19:42;96829.39;;;0.28;100.00
38612;BME280;24368;52.156;20.788;2023-12-22T14:24:43;96833.93;;;0.24;100.00
38612;BME280;24368;52.156;20.788;2023-12-22T14:29:46;96833.23;;;0.18;100.00
38612;BME280;24368;52.156;20.788;2023-12-22T14:34:49;96832.45;;;0.11;100.00
38612;BME280;24368;52.156;20.788;2023-12-22T14:39:51;96841.66;;;0.11;100.00
38612;BME280;24368;52.156;20.788;2023-12-22T14:44:52;96850.41;;;0.13;100.00
38612;BME280;24368;52.156;20.788;2023-12-22T14:49:55;96835.09;;;0.17;100.00
38612;BME280;24368;52.156;20.788;2023-12-22T14:55:01;96837.63;;;0.20;100.00
38612;BME280;24368;52.156;20.788;2023-12-22T15:00:04;96842.14;;;0.25;100.00
38612;BME280;24368;52.156;20.788;2023-12-22T15:05:07;96841.94;;;0.25;100.00
38612;BME280;24368;52.156;20.788;2023-12-22T15:10:10;96848.98;;;0.28;100.00
38612;BME280;24368;52.156;20.788;2023-12-22T15:15:12;96859.05;;;0.29;100.00
38612;BME280;24368;52.156;20.788;2023-12-22T15:20:14;96862.25;;;0.31;100.00
38612;BME280;24368;52.156;20.788;2023-12-22T15:25:16;96871.33;;;0.29;100.00
38612;BME280;24368;52.156;20.788;2023-12-22T15:30:17;96867.58;;;0.22;100.00
38612;BME280;24368;52.156;20.788;2023-12-22T15:35:19;96875.33;;;0.17;100.00
38612;BME280;24368;52.156;20.788;2023-12-22T15:40:21;96886.54;;;0.15;100.00
38612;BME280;24368;52.156;20.788;2023-12-22T15:45:23;96884.83;;;0.12;100.00
38612;BME280;24368;52.156;20.788;2023-12-22T15:50:25;96897.05;;;0.08;100.00
38612;BME280;24368;52.156;20.788;2023-12-22T15:55:26;96893.25;;;0.05;100.00
38612;BME280;24368;52.156;20.788;2023-12-22T16:00:28;96913.38;;;0.03;100.00
38612;BME280;24368;52.156;20.788;2023-12-22T16:05:30;96915.82;;;-0.02;100.00
38612;BME280;24368;52.156;20.788;2023-12-22T16:10:32;96918.77;;;-0.02;100.00
38612;BME280;24368;52.156;20.788;2023-12-22T16:15:34;96923.23;;;0.03;100.00
38612;BME280;24368;52.156;20.788;2023-12-22T16:20:35;96926.34;;;0.10;100.00
38612;BME280;24368;52.156;20.788;2023-12-22T16:25:39;96934.86;;;0.18;100.00
38612;BME280;24368;52.156;20.788;2023-12-22T16:30:41;96957.17;;;0.26;100.00
38612;BME280;24368;52.156;20.788;2023-12-22T16:35:43;96952.25;;;0.34;100.00
38612;BME280;24368;52.156;20.788;2023-12-22T16:40:45;96948.94;;;0.39;100.00
38612;BME280;24368;52.156;20.788;2023-12-22T16:45:46;96944.33;;;0.44;100.00
38612;BME280;24368;52.156;20.788;2023-12-22T16:50:48;96953.55;;;0.64;100.00
38612;BME280;24368;52.156;20.788;2023-12-22T16:55:50;96952.90;;;0.76;100.00
38612;BME280;24368;52.156;20.788;2023-12-22T17:00:52;96946.75;;;0.97;100.00
38612;BME280;24368;52.156;20.788;2023-12-22T17:05:54;96975.55;;;1.21;100.00
38612;BME280;24368;52.156;20.788;2023-12-22T17:10:56;96979.29;;;1.31;100.00
38612;BME280;24368;52.156;20.788;2023-12-22T17:15:59;96985.67;;;1.30;100.00
38612;BME280;24368;52.156;20.788;2023-12-22T17:21:01;96982.39;;;1.23;100.00
38612;BME280;24368;52.156;20.788;2023-12-22T17:26:03;96991.65;;;1.14;100.00
38612;BME280;24368;52.156;20.788;2023-12-22T17:31:05;96994.42;;;1.20;100.00
38612;BME280;24368;52.156;20.788;2023-12-22T17:36:08;96985.22;;;1.23;100.00
38612;BME280;24368;52.156;20.788;2023-12-22T17:41:11;96981.76;;;1.38;100.00
38612;BME280;24368;52.156;20.788;2023-12-22T17:46:13;96984.48;;;1.41;100.00
38612;BME280;24368;52.156;20.788;2023-12-22T17:51:15;97006.23;;;1.51;100.00
38612;BME280;24368;52.156;20.788;2023-12-22T17:56:17;96999.32;;;1.54;100.00
38612;BME280;24368;52.156;20.788;2023-12-22T18:01:19;97005.70;;;1.60;100.00
38612;BME280;24368;52.156;20.788;2023-12-22T18:06:21;97010.17;;;1.66;100.00
38612;BME280;24368;52.156;20.788;2023-12-22T18:11:23;97012.85;;;1.60;100.00
38612;BME280;24368;52.156;20.788;2023-12-22T18:16:25;97015.95;;;1.58;100.00
38612;BME280;24368;52.156;20.788;2023-12-22T18:21:28;97009.29;;;1.56;100.00
38612;BME280;24368;52.156;20.788;2023-12-22T18:26:30;97018.23;;;1.61;100.00
38612;BME280;24368;52.156;20.788;2023-12-22T18:31:31;97016.45;;;1.60;100.00
38612;BME280;24368;52.156;20.788;2023-12-22T18:36:33;97023.43;;;1.61;100.00
38612;BME280;24368;52.156;20.788;2023-12-22T18:41:35;97030.30;;;1.63;100.00
38612;BME280;24368;52.156;20.788;2023-12-22T18:46:37;97041.70;;;1.61;100.00
38612;BME280;24368;52.156;20.788;2023-12-22T18:51:38;97053.34;;;1.58;100.00
38612;BME280;24368;52.156;20.788;2023-12-22T18:56:41;97045.42;;;1.58;100.00
38612;BME280;24368;52.156;20.788;2023-12-22T19:01:43;97043.11;;;1.56;100.00
38612;BME280;24368;52.156;20.788;2023-12-22T19:06:45;97054.14;;;1.49;100.00
38612;BME280;24368;52.156;20.788;2023-12-22T19:11:47;97066.67;;;1.52;100.00
38612;BME280;24368;52.156;20.788;2023-12-22T19:16:49;97057.48;;;1.53;100.00
38612;BME280;24368;52.156;20.788;2023-12-22T19:21:52;97062.10;;;1.49;100.00
38612;BME280;24368;52.156;20.788;2023-12-22T19:26:54;97065.23;;;1.46;100.00
38612;BME280;24368;52.156;20.788;2023-12-22T19:31:56;97070.10;;;1.46;100.00
38612;BME280;24368;52.156;20.788;2023-12-22T19:36:57;97078.48;;;1.46;100.00
38612;BME280;24368;52.156;20.788;2023-12-22T19:41:59;97082.72;;;1.42;100.00
38612;BME280;24368;52.156;20.788;2023-12-22T19:47:01;97089.19;;;1.43;100.00
38612;BME280;24368;52.156;20.788;2023-12-22T19:52:03;97095.41;;;1.45;100.00
38612;BME280;24368;52.156;20.788;2023-12-22T19:57:05;97100.60;;;1.43;100.00
38612;BME280;24368;52.156;20.788;2023-12-22T20:02:07;97112.31;;;1.40;100.00
38612;BME280;24368;52.156;20.788;2023-12-22T20:07:09;97121.63;;;1.43;100.00
38612;BME280;24368;52.156;20.788;2023-12-22T20:12:11;97123.98;;;1.39;100.00
38612;BME280;24368;52.156;20.788;2023-12-22T20:17:13;97127.52;;;1.39;100.00
38612;BME280;24368;52.156;20.788;2023-12-22T20:22:15;97130.41;;;1.39;100.00
38612;BME280;24368;52.156;20.788;2023-12-22T20:27:17;97132.17;;;1.42;99.85
38612;BME280;24368;52.156;20.788;2023-12-22T20:32:19;97127.94;;;1.40;100.00
38612;BME280;24368;52.156;20.788;2023-12-22T20:37:21;97140.05;;;1.40;100.00
38612;BME280;24368;52.156;20.788;2023-12-22T20:42:23;97144.25;;;1.37;100.00
38612;BME280;24368;52.156;20.788;2023-12-22T20:47:25;97143.23;;;1.36;100.00
38612;BME280;24368;52.156;20.788;2023-12-22T20:52:27;97150.06;;;1.30;100.00
38612;BME280;24368;52.156;20.788;2023-12-22T20:57:29;97155.99;;;1.26;100.00
38612;BME280;24368;52.156;20.788;2023-12-22T21:02:31;97167.08;;;1.23;100.00
38612;BME280;24368;52.156;20.788;2023-12-22T21:07:34;97160.44;;;1.19;100.00
38612;BME280;24368;52.156;20.788;2023-12-22T21:12:35;97163.66;;;1.18;100.00
38612;BME280;24368;52.156;20.788;2023-12-22T21:17:38;97168.36;;;1.19;100.00
38612;BME280;24368;52.156;20.788;2023-12-22T21:22:43;97167.42;;;1.16;100.00
38612;BME280;24368;52.156;20.788;2023-12-22T21:27:45;97175.66;;;1.16;100.00
38612;BME280;24368;52.156;20.788;2023-12-22T21:32:49;97171.92;;;1.13;100.00
38612;BME280;24368;52.156;20.788;2023-12-22T21:37:51;97180.44;;;1.12;100.00
38612;BME280;24368;52.156;20.788;2023-12-22T21:42:53;97192.69;;;1.10;100.00
38612;BME280;24368;52.156;20.788;2023-12-22T21:47:57;97185.09;;;1.08;100.00
38612;BME280;24368;52.156;20.788;2023-12-22T21:52:59;97188.39;;;1.05;100.00
38612;BME280;24368;52.156;20.788;2023-12-22T21:58:01;97197.75;;;0.97;100.00
38612;BME280;24368;52.156;20.788;2023-12-22T22:03:03;97198.20;;;0.95;100.00
38612;BME280;24368;52.156;20.788;2023-12-22T22:08:06;97198.96;;;0.91;100.00
38612;BME280;24368;52.156;20.788;2023-12-22T22:13:08;97202.77;;;0.89;100.00
38612;BME280;24368;52.156;20.788;2023-12-22T22:18:09;97205.34;;;0.84;100.00
38612;BME280;24368;52.156;20.788;2023-12-22T22:23:12;97207.64;;;0.82;100.00
38612;BME280;24368;52.156;20.788;2023-12-22T22:28:14;97219.58;;;0.82;100.00
38612;BME280;24368;52.156;20.788;2023-12-22T22:33:16;97217.54;;;0.80;100.00
38612;BME280;24368;52.156;20.788;2023-12-22T22:38:18;97217.71;;;0.77;100.00
38612;BME280;24368;52.156;20.788;2023-12-22T22:43:19;97221.54;;;0.73;100.00
38612;BME280;24368;52.156;20.788;2023-12-22T22:48:21;97226.54;;;0.74;100.00
38612;BME280;24368;52.156;20.788;2023-12-22T22:53:23;97234.96;;;0.71;100.00
38612;BME280;24368;52.156;20.788;2023-12-22T22:58:25;97225.66;;;0.72;100.00
38612;BME280;24368;52.156;20.788;2023-12-22T23:03:26;97227.50;;;0.69;100.00
38612;BME280;24368;52.156;20.788;2023-12-22T23:08:28;97214.52;;;0.66;100.00
38612;BME280;24368;52.156;20.788;2023-12-22T23:13:30;97212.86;;;0.67;100.00
38612;BME280;24368;52.156;20.788;2023-12-22T23:18:32;97226.15;;;0.64;100.00
38612;BME280;24368;52.156;20.788;2023-12-22T23:23:34;97229.46;;;0.64;100.00
38612;BME280;24368;52.156;20.788;2023-12-22T23:28:36;97235.12;;;0.62;100.00
38612;BME280;24368;52.156;20.788;2023-12-22T23:33:37;97231.02;;;0.63;100.00
38612;BME280;24368;52.156;20.788;2023-12-22T23:38:39;97230.83;;;0.61;100.00
38612;BME280;24368;52.156;20.788;2023-12-22T23:43:41;97242.89;;;0.60;100.00
38612;BME280;24368;52.156;20.788;2023-12-22T23:48:43;97253.98;;;0.62;100.00
38612;BME280;24368;52.156;20.788;2023-12-22T23:53:45;97244.60;;;0.64;100.00
38612;BME280;24368;52.156;20.788;2023-12-22T23:58:47;97250.02;;;0.65;100.00
